sensor_id;sensor_type;location;lat;lon;timestamp;pressure;altitude;pressure_sealevel;temperature;humidity
74921;BME280;63483;47.384;8.860;2022-12-18T00:00:45;95368.13;;;-3.87;49.81
74921;BME280;63483;47.384;8.860;2022-12-18T00:03:13;95365.09;;;-3.95;50.19
74921;BME280;63483;47.384;8.860;2022-12-18T00:05:49;95365.94;;;-3.95;50.16
74921;BME280;63483;47.384;8.860;2022-12-18T00:08:15;95360.25;;;-4.02;49.98
74921;BME280;63483;47.384;8.860;2022-12-18T00:10:40;95368.00;;;-4.03;49.67
74921;BME280;63483;47.384;8.860;2022-12-18T00:13:06;95374.94;;;-4.05;49.98
74921;BME280;63483;47.384;8.860;2022-12-18T00:15:34;95385.56;;;-3.95;49.39
74921;BME280;63483;47.384;8.860;2022-12-18T00:17:59;95387.97;;;-3.92;49.93
74921;BME280;63483;47.384;8.860;2022-12-18T00:20:24;95385.16;;;-3.86;50.22
74921;BME280;63483;47.384;8.860;2022-12-18T00:22:51;95387.47;;;-3.81;50.13
74921;BME280;63483;47.384;8.860;2022-12-18T00:25:17;95382.88;;;-3.75;49.53
74921;BME280;63483;47.384;8.860;2022-12-18T00:27:42;95389.34;;;-3.85;49.58
74921;BME280;63483;47.384;8.860;2022-12-18T00:30:08;95391.91;;;-3.85;49.54
74921;BME280;63483;47.384;8.860;2022-12-18T00:32:34;95400.22;;;-3.80;49.83
74921;BME280;63483;47.384;8.860;2022-12-18T00:34:59;95402.53;;;-3.75;49.85
74921;BME280;63483;47.384;8.860;2022-12-18T00:37:24;95400.81;;;-3.75;49.48
74921;BME280;63483;47.384;8.860;2022-12-18T00:39:49;95398.25;;;-3.75;49.38
74921;BME280;63483;47.384;8.860;2022-12-18T00:42:15;95400.56;;;-3.70;49.33
74921;BME280;63483;47.384;8.860;2022-12-18T00:44:59;95405.69;;;-3.70;49.17
74921;BME280;63483;47.384;8.860;2022-12-18T00:47:24;95411.66;;;-3.70;49.09
74921;BME280;63483;47.384;8.860;2022-12-18T00:49:49;95403.22;;;-3.72;49.05
74921;BME280;63483;47.384;8.860;2022-12-18T00:52:15;95393.72;;;-4.81;47.15
74921;BME280;63483;47.384;8.860;2022-12-18T00:54:40;95391.75;;;-5.56;45.81
74921;BME280;63483;47.384;8.860;2022-12-18T00:57:05;95384.00;;;-6.18;46.77
74921;BME280;63483;47.384;8.860;2022-12-18T00:59:31;95383.34;;;-6.69;47.16
74921;BME280;63483;47.384;8.860;2022-12-18T01:01:56;95385.53;;;-7.06;48.16
74921;BME280;63483;47.384;8.860;2022-12-18T01:04:21;95387.50;;;-7.39;49.15
74921;BME280;63483;47.384;8.860;2022-12-18T01:06:47;95388.25;;;-7.62;49.52
74921;BME280;63483;47.384;8.860;2022-12-18T01:09:13;95400.69;;;-7.78;50.09
74921;BME280;63483;47.384;8.860;2022-12-18T01:11:39;95399.50;;;-7.95;49.96
74921;BME280;63483;47.384;8.860;2022-12-18T01:14:04;95403.28;;;-8.08;50.45
74921;BME280;63483;47.384;8.860;2022-12-18T01:16:30;95418.63;;;-8.11;51.36
74921;BME280;63483;47.384;8.860;2022-12-18T01:18:55;95413.84;;;-8.20;51.22
74921;BME280;63483;47.384;8.860;2022-12-18T01:21:22;95417.66;;;-8.35;50.82
74921;BME280;63483;47.384;8.860;2022-12-18T01:23:51;95409.31;;;-8.39;50.54
74921;BME280;63483;47.384;8.860;2022-12-18T01:26:17;95408.47;;;-8.39;49.83
74921;BME280;63483;47.384;8.860;2022-12-18T01:28:43;95406.94;;;-8.45;50.11
74921;BME280;63483;47.384;8.860;2022-12-18T01:33:39;95424.81;;;-8.48;48.71
74921;BME280;63483;47.384;8.860;2022-12-18T01:36:05;95423.34;;;-8.55;48.80
74921;BME280;63483;47.384;8.860;2022-12-18T01:38:30;95434.47;;;-8.60;48.32
74921;BME280;63483;47.384;8.860;2022-12-18T01:41:00;95443.09;;;-8.65;48.94
74921;BME280;63483;47.384;8.860;2022-12-18T01:44:01;95442.78;;;-8.54;48.09
74921;BME280;63483;47.384;8.860;2022-12-18T01:46:27;95443.31;;;-8.43;48.58
74921;BME280;63483;47.384;8.860;2022-12-18T01:48:56;95445.22;;;-8.51;47.21
74921;BME280;63483;47.384;8.860;2022-12-18T01:51:22;95436.38;;;-8.38;47.14
74921;BME280;63483;47.384;8.860;2022-12-18T01:53:48;95448.78;;;-7.99;51.00
74921;BME280;63483;47.384;8.860;2022-12-18T01:56:21;95440.50;;;-8.06;64.68
74921;BME280;63483;47.384;8.860;2022-12-18T01:59:03;95450.44;;;-8.26;55.61
74921;BME280;63483;47.384;8.860;2022-12-18T02:01:30;95449.66;;;-8.58;52.72
74921;BME280;63483;47.384;8.860;2022-12-18T02:04:20;95451.16;;;-8.82;52.26
74921;BME280;63483;47.384;8.860;2022-12-18T02:06:46;95449.91;;;-8.99;52.53
74921;BME280;63483;47.384;8.860;2022-12-18T02:09:34;95446.94;;;-9.13;52.11
74921;BME280;63483;47.384;8.860;2022-12-18T02:12:05;95443.06;;;-9.26;52.72
74921;BME280;63483;47.384;8.860;2022-12-18T02:14:53;95438.16;;;-9.34;53.41
74921;BME280;63483;47.384;8.860;2022-12-18T02:17:22;95434.00;;;-9.37;53.38
74921;BME280;63483;47.384;8.860;2022-12-18T02:20:20;95438.91;;;-9.31;53.93
74921;BME280;63483;47.384;8.860;2022-12-18T02:27:52;95459.38;;;-9.37;52.47
74921;BME280;63483;47.384;8.860;2022-12-18T02:30:19;95459.44;;;-9.40;52.86
74921;BME280;63483;47.384;8.860;2022-12-18T02:32:50;95446.81;;;-9.43;52.22
74921;BME280;63483;47.384;8.860;2022-12-18T02:35:21;95454.22;;;-9.34;53.78
74921;BME280;63483;47.384;8.860;2022-12-18T02:37:49;95452.22;;;-9.22;52.10
74921;BME280;63483;47.384;8.860;2022-12-18T02:40:17;95447.53;;;-9.05;51.86
74921;BME280;63483;47.384;8.860;2022-12-18T02:42:42;95446.72;;;-8.74;51.76
74921;BME280;63483;47.384;8.860;2022-12-18T02:45:08;95446.97;;;-8.83;50.99
74921;BME280;63483;47.384;8.860;2022-12-18T02:47:36;95445.34;;;-8.86;50.06
74921;BME280;63483;47.384;8.860;2022-12-18T02:50:22;95440.94;;;-8.79;50.56
74921;BME280;63483;47.384;8.860;2022-12-18T02:53:32;95449.75;;;-8.92;49.59
74921;BME280;63483;47.384;8.860;2022-12-18T02:56:09;95443.84;;;-8.93;49.69
74921;BME280;63483;47.384;8.860;2022-12-18T03:04:03;95449.91;;;-8.66;58.58
74921;BME280;63483;47.384;8.860;2022-12-18T03:06:36;95459.84;;;-8.89;54.14
74921;BME280;63483;47.384;8.860;2022-12-18T03:09:07;95459.50;;;-9.08;53.57
74921;BME280;63483;47.384;8.860;2022-12-18T03:11:37;95466.72;;;-9.26;53.56
74921;BME280;63483;47.384;8.860;2022-12-18T03:14:24;95469.53;;;-9.37;54.17
74921;BME280;63483;47.384;8.860;2022-12-18T03:16:54;95470.63;;;-9.47;53.37
74921;BME280;63483;47.384;8.860;2022-12-18T03:19:26;95461.53;;;-9.56;53.14
74921;BME280;63483;47.384;8.860;2022-12-18T03:21:56;95462.47;;;-9.60;54.18
74921;BME280;63483;47.384;8.860;2022-12-18T03:24:24;95468.53;;;-9.66;53.71
74921;BME280;63483;47.384;8.860;2022-12-18T03:26:54;95465.19;;;-9.68;53.63
74921;BME280;63483;47.384;8.860;2022-12-18T03:29:36;95463.53;;;-9.69;53.44
74921;BME280;63483;47.384;8.860;2022-12-18T03:32:10;95469.53;;;-9.73;53.69
74921;BME280;63483;47.384;8.860;2022-12-18T03:34:39;95467.03;;;-9.74;53.63
74921;BME280;63483;47.384;8.860;2022-12-18T03:37:06;95476.34;;;-9.75;53.08
74921;BME280;63483;47.384;8.860;2022-12-18T03:39:33;95477.06;;;-9.70;53.43
74921;BME280;63483;47.384;8.860;2022-12-18T03:42:10;95481.13;;;-9.62;53.22
74921;BME280;63483;47.384;8.860;2022-12-18T03:47:15;95484.44;;;-9.59;52.35
74921;BME280;63483;47.384;8.860;2022-12-18T03:49:58;95485.19;;;-9.55;52.13
74921;BME280;63483;47.384;8.860;2022-12-18T03:52:35;95491.97;;;-9.56;52.67
74921;BME280;63483;47.384;8.860;2022-12-18T03:55:03;95496.84;;;-9.48;52.05
74921;BME280;63483;47.384;8.860;2022-12-18T03:57:31;95505.09;;;-9.40;52.38
74921;BME280;63483;47.384;8.860;2022-12-18T04:00:03;95505.09;;;-9.40;51.24
74921;BME280;63483;47.384;8.860;2022-12-18T04:02:30;95507.31;;;-9.26;53.35
74921;BME280;63483;47.384;8.860;2022-12-18T04:04:59;95492.28;;;-8.38;58.58
74921;BME280;63483;47.384;8.860;2022-12-18T04:07:25;95495.38;;;-7.70;63.33
74921;BME280;63483;47.384;8.860;2022-12-18T04:09:54;95492.25;;;-7.25;55.82
74921;BME280;63483;47.384;8.860;2022-12-18T04:12:24;95489.34;;;-6.89;55.42
74921;BME280;63483;47.384;8.860;2022-12-18T04:14:50;95496.81;;;-6.59;55.78
74921;BME280;63483;47.384;8.860;2022-12-18T04:17:15;95494.25;;;-6.35;54.32
74921;BME280;63483;47.384;8.860;2022-12-18T04:19:41;95499.47;;;-6.15;53.74
74921;BME280;63483;47.384;8.860;2022-12-18T04:22:06;95493.81;;;-5.99;53.16
74921;BME280;63483;47.384;8.860;2022-12-18T04:24:31;95501.75;;;-5.85;53.62
74921;BME280;63483;47.384;8.860;2022-12-18T04:26:57;95498.75;;;-5.72;53.64
74921;BME280;63483;47.384;8.860;2022-12-18T04:29:22;95507.66;;;-5.61;53.45
74921;BME280;63483;47.384;8.860;2022-12-18T04:31:47;95511.47;;;-5.49;52.79
74921;BME280;63483;47.384;8.860;2022-12-18T04:34:13;95516.31;;;-5.43;52.23
74921;BME280;63483;47.384;8.860;2022-12-18T04:36:38;95517.75;;;-5.35;52.02
74921;BME280;63483;47.384;8.860;2022-12-18T04:39:03;95519.91;;;-5.26;52.35
74921;BME280;63483;47.384;8.860;2022-12-18T04:41:29;95523.00;;;-5.18;52.01
74921;BME280;63483;47.384;8.860;2022-12-18T04:43:54;95523.63;;;-5.13;51.54
74921;BME280;63483;47.384;8.860;2022-12-18T04:46:19;95522.56;;;-5.07;51.52
74921;BME280;63483;47.384;8.860;2022-12-18T04:48:46;95530.03;;;-5.02;51.73
74921;BME280;63483;47.384;8.860;2022-12-18T04:51:11;95526.47;;;-4.98;51.64
74921;BME280;63483;47.384;8.860;2022-12-18T04:53:37;95531.38;;;-4.94;50.97
74921;BME280;63483;47.384;8.860;2022-12-18T04:56:13;95540.59;;;-4.90;51.33
74921;BME280;63483;47.384;8.860;2022-12-18T04:58:40;95532.75;;;-4.85;50.57
74921;BME280;63483;47.384;8.860;2022-12-18T05:01:06;95531.78;;;-4.82;50.68
74921;BME280;63483;47.384;8.860;2022-12-18T05:03:33;95537.59;;;-4.79;51.29
74921;BME280;63483;47.384;8.860;2022-12-18T05:05:59;95525.56;;;-4.77;51.42
74921;BME280;63483;47.384;8.860;2022-12-18T05:08:24;95523.72;;;-4.73;51.18
74921;BME280;63483;47.384;8.860;2022-12-18T05:10:49;95527.81;;;-4.69;50.85
74921;BME280;63483;47.384;8.860;2022-12-18T05:13:15;95518.41;;;-4.68;50.64
74921;BME280;63483;47.384;8.860;2022-12-18T05:15:40;95513.25;;;-4.67;50.52
74921;BME280;63483;47.384;8.860;2022-12-18T05:18:07;95512.28;;;-4.64;50.67
74921;BME280;63483;47.384;8.860;2022-12-18T05:20:32;95510.63;;;-4.65;50.90
74921;BME280;63483;47.384;8.860;2022-12-18T05:22:58;95511.31;;;-4.62;50.62
74921;BME280;63483;47.384;8.860;2022-12-18T05:25:23;95504.47;;;-4.61;51.27
74921;BME280;63483;47.384;8.860;2022-12-18T05:27:49;95506.91;;;-4.58;51.15
74921;BME280;63483;47.384;8.860;2022-12-18T05:30:15;95516.25;;;-4.57;51.22
74921;BME280;63483;47.384;8.860;2022-12-18T05:32:40;95509.31;;;-4.55;51.29
74921;BME280;63483;47.384;8.860;2022-12-18T05:35:07;95516.03;;;-4.52;51.05
74921;BME280;63483;47.384;8.860;2022-12-18T05:37:33;95517.63;;;-4.50;51.26
74921;BME280;63483;47.384;8.860;2022-12-18T05:39:58;95529.38;;;-4.46;51.11
74921;BME280;63483;47.384;8.860;2022-12-18T05:42:24;95536.09;;;-4.43;50.37
74921;BME280;63483;47.384;8.860;2022-12-18T05:44:49;95539.63;;;-4.46;50.52
74921;BME280;63483;47.384;8.860;2022-12-18T05:47:15;95542.94;;;-4.44;50.49
74921;BME280;63483;47.384;8.860;2022-12-18T05:49:40;95545.44;;;-4.42;49.87
74921;BME280;63483;47.384;8.860;2022-12-18T05:52:06;95541.22;;;-4.43;50.13
74921;BME280;63483;47.384;8.860;2022-12-18T05:54:31;95534.50;;;-4.46;50.29
74921;BME280;63483;47.384;8.860;2022-12-18T05:56:57;95542.31;;;-4.90;52.21
74921;BME280;63483;47.384;8.860;2022-12-18T05:59:22;95539.06;;;-6.04;46.97
74921;BME280;63483;47.384;8.860;2022-12-18T06:01:48;95532.50;;;-6.84;48.50
74921;BME280;63483;47.384;8.860;2022-12-18T06:04:13;95527.03;;;-7.25;48.83
74921;BME280;63483;47.384;8.860;2022-12-18T06:06:38;95539.91;;;-7.57;49.81
74921;BME280;63483;47.384;8.860;2022-12-18T06:09:04;95535.06;;;-7.93;50.35
74921;BME280;63483;47.384;8.860;2022-12-18T06:11:34;95537.25;;;-8.10;51.12
74921;BME280;63483;47.384;8.860;2022-12-18T06:14:00;95536.28;;;-8.36;51.13
74921;BME280;63483;47.384;8.860;2022-12-18T06:16:27;95547.72;;;-8.51;51.83
74921;BME280;63483;47.384;8.860;2022-12-18T06:18:52;95546.41;;;-8.66;51.70
74921;BME280;63483;47.384;8.860;2022-12-18T06:21:18;95550.03;;;-8.74;51.79
74921;BME280;63483;47.384;8.860;2022-12-18T06:23:43;95549.50;;;-8.87;52.00
74921;BME280;63483;47.384;8.860;2022-12-18T06:26:11;95558.06;;;-8.91;52.20
74921;BME280;63483;47.384;8.860;2022-12-18T06:28:37;95567.34;;;-8.90;51.69
74921;BME280;63483;47.384;8.860;2022-12-18T06:31:03;95563.06;;;-8.88;51.53
74921;BME280;63483;47.384;8.860;2022-12-18T06:33:29;95567.28;;;-8.87;52.06
74921;BME280;63483;47.384;8.860;2022-12-18T06:36:00;95574.66;;;-8.78;51.30
74921;BME280;63483;47.384;8.860;2022-12-18T06:38:26;95574.72;;;-8.81;51.86
74921;BME280;63483;47.384;8.860;2022-12-18T06:40:52;95573.81;;;-8.79;50.61
74921;BME280;63483;47.384;8.860;2022-12-18T06:43:17;95576.31;;;-8.77;51.14
74921;BME280;63483;47.384;8.860;2022-12-18T06:45:42;95568.59;;;-8.72;50.03
74921;BME280;63483;47.384;8.860;2022-12-18T06:48:08;95574.09;;;-8.56;51.43
74921;BME280;63483;47.384;8.860;2022-12-18T06:50:33;95567.25;;;-8.54;50.18
74921;BME280;63483;47.384;8.860;2022-12-18T06:52:59;95568.97;;;-8.55;48.05
74921;BME280;63483;47.384;8.860;2022-12-18T06:55:24;95563.34;;;-8.35;47.89
74921;BME280;63483;47.384;8.860;2022-12-18T06:57:50;95566.75;;;-7.75;52.56
74921;BME280;63483;47.384;8.860;2022-12-18T07:00:15;95577.25;;;-8.15;65.83
74921;BME280;63483;47.384;8.860;2022-12-18T07:02:41;95589.66;;;-8.36;57.24
74921;BME280;63483;47.384;8.860;2022-12-18T07:05:06;95599.69;;;-8.63;54.86
74921;BME280;63483;47.384;8.860;2022-12-18T07:07:34;95607.69;;;-8.80;54.24
74921;BME280;63483;47.384;8.860;2022-12-18T07:09:59;95609.94;;;-9.02;53.96
74921;BME280;63483;47.384;8.860;2022-12-18T07:12:26;95616.09;;;-9.12;54.70
74921;BME280;63483;47.384;8.860;2022-12-18T07:14:52;95629.94;;;-9.25;54.22
74921;BME280;63483;47.384;8.860;2022-12-18T07:17:17;95631.69;;;-9.27;54.17
74921;BME280;63483;47.384;8.860;2022-12-18T07:19:43;95627.63;;;-9.35;54.17
74921;BME280;63483;47.384;8.860;2022-12-18T07:22:08;95629.25;;;-9.32;54.70
74921;BME280;63483;47.384;8.860;2022-12-18T07:24:33;95636.91;;;-9.34;54.57
74921;BME280;63483;47.384;8.860;2022-12-18T07:26:59;95638.63;;;-9.36;54.52
74921;BME280;63483;47.384;8.860;2022-12-18T07:29:24;95635.16;;;-9.32;54.84
74921;BME280;63483;47.384;8.860;2022-12-18T07:31:50;95648.59;;;-9.26;55.07
74921;BME280;63483;47.384;8.860;2022-12-18T07:34:16;95651.09;;;-9.25;54.59
74921;BME280;63483;47.384;8.860;2022-12-18T07:36:41;95647.72;;;-9.25;54.57
74921;BME280;63483;47.384;8.860;2022-12-18T07:39:07;95649.28;;;-9.20;53.49
74921;BME280;63483;47.384;8.860;2022-12-18T07:41:33;95649.16;;;-9.15;53.24
74921;BME280;63483;47.384;8.860;2022-12-18T07:43:58;95637.75;;;-8.97;53.19
74921;BME280;63483;47.384;8.860;2022-12-18T07:46:23;95642.72;;;-8.92;52.70
74921;BME280;63483;47.384;8.860;2022-12-18T07:48:49;95647.59;;;-8.83;52.27
74921;BME280;63483;47.384;8.860;2022-12-18T07:51:14;95646.84;;;-8.88;51.58
74921;BME280;63483;47.384;8.860;2022-12-18T07:53:39;95640.94;;;-8.89;51.55
74921;BME280;63483;47.384;8.860;2022-12-18T07:56:10;95642.59;;;-8.86;51.49
74921;BME280;63483;47.384;8.860;2022-12-18T07:58:36;95638.72;;;-8.67;51.76
74921;BME280;63483;47.384;8.860;2022-12-18T08:01:03;95644.19;;;-8.16;54.67
74921;BME280;63483;47.384;8.860;2022-12-18T08:03:29;95647.44;;;-8.11;63.42
74921;BME280;63483;47.384;8.860;2022-12-18T08:06:05;95640.31;;;-8.30;57.68
74921;BME280;63483;47.384;8.860;2022-12-18T08:08:32;95647.03;;;-8.62;54.62
74921;BME280;63483;47.384;8.860;2022-12-18T08:10:58;95646.66;;;-8.81;54.39
74921;BME280;63483;47.384;8.860;2022-12-18T08:13:24;95647.78;;;-8.92;53.55
74921;BME280;63483;47.384;8.860;2022-12-18T08:16:00;95653.13;;;-9.03;54.02
74921;BME280;63483;47.384;8.860;2022-12-18T08:18:27;95658.50;;;-9.16;54.05
74921;BME280;63483;47.384;8.860;2022-12-18T08:20:54;95666.09;;;-9.16;53.86
74921;BME280;63483;47.384;8.860;2022-12-18T08:23:20;95666.31;;;-9.25;53.95
74921;BME280;63483;47.384;8.860;2022-12-18T08:25:45;95673.13;;;-8.89;54.40
74921;BME280;63483;47.384;8.860;2022-12-18T08:28:11;95666.97;;;-8.81;53.82
74921;BME280;63483;47.384;8.860;2022-12-18T08:30:36;95673.13;;;-8.89;53.83
74921;BME280;63483;47.384;8.860;2022-12-18T08:33:02;95677.28;;;-8.87;55.02
74921;BME280;63483;47.384;8.860;2022-12-18T08:35:28;95686.66;;;-8.54;55.04
74921;BME280;63483;47.384;8.860;2022-12-18T08:37:53;95691.03;;;-8.60;53.37
74921;BME280;63483;47.384;8.860;2022-12-18T08:40:19;95683.81;;;-8.77;52.73
74921;BME280;63483;47.384;8.860;2022-12-18T08:42:44;95681.38;;;-8.81;52.57
74921;BME280;63483;47.384;8.860;2022-12-18T08:45:28;95678.00;;;-8.80;52.46
74921;BME280;63483;47.384;8.860;2022-12-18T08:47:54;95682.59;;;-8.62;53.03
74921;BME280;63483;47.384;8.860;2022-12-18T08:50:19;95674.13;;;-8.61;51.87
74921;BME280;63483;47.384;8.860;2022-12-18T08:52:45;95684.81;;;-8.48;52.87
74921;BME280;63483;47.384;8.860;2022-12-18T08:55:10;95679.78;;;-8.16;53.20
74921;BME280;63483;47.384;8.860;2022-12-18T08:57:35;95679.06;;;-8.21;51.55
74921;BME280;63483;47.384;8.860;2022-12-18T09:00:01;95684.88;;;-7.85;52.02
74921;BME280;63483;47.384;8.860;2022-12-18T09:02:27;95677.34;;;-7.58;51.24
74921;BME280;63483;47.384;8.860;2022-12-18T09:04:52;95672.88;;;-7.20;53.16
74921;BME280;63483;47.384;8.860;2022-12-18T09:07:17;95669.16;;;-7.38;64.98
74921;BME280;63483;47.384;8.860;2022-12-18T09:09:42;95653.34;;;-7.49;58.76
74921;BME280;63483;47.384;8.860;2022-12-18T09:12:08;95644.88;;;-7.78;55.67
74921;BME280;63483;47.384;8.860;2022-12-18T09:14:34;95648.41;;;-7.84;54.46
74921;BME280;63483;47.384;8.860;2022-12-18T09:16:59;95654.97;;;-8.08;53.50
74921;BME280;63483;47.384;8.860;2022-12-18T09:19:24;95640.06;;;-8.20;53.29
74921;BME280;63483;47.384;8.860;2022-12-18T09:21:49;95641.00;;;-8.25;53.29
74921;BME280;63483;47.384;8.860;2022-12-18T09:24:15;95649.84;;;-8.38;52.98
74921;BME280;63483;47.384;8.860;2022-12-18T09:26:41;95648.31;;;-8.45;52.69
74921;BME280;63483;47.384;8.860;2022-12-18T09:29:06;95644.00;;;-8.42;53.38
74921;BME280;63483;47.384;8.860;2022-12-18T09:31:35;95650.56;;;-8.33;54.13
74921;BME280;63483;47.384;8.860;2022-12-18T09:34:01;95645.78;;;-8.12;54.14
74921;BME280;63483;47.384;8.860;2022-12-18T09:36:26;95640.88;;;-8.18;52.48
74921;BME280;63483;47.384;8.860;2022-12-18T09:38:51;95652.94;;;-8.27;52.25
74921;BME280;63483;47.384;8.860;2022-12-18T09:43:55;95658.13;;;-7.98;52.69
74921;BME280;63483;47.384;8.860;2022-12-18T09:46:30;95663.34;;;-8.03;51.02
74921;BME280;63483;47.384;8.860;2022-12-18T09:49:02;95655.31;;;-7.58;51.93
74921;BME280;63483;47.384;8.860;2022-12-18T09:51:36;95648.63;;;-7.62;50.82
74921;BME280;63483;47.384;8.860;2022-12-18T09:54:07;95643.50;;;-7.60;50.33
74921;BME280;63483;47.384;8.860;2022-12-18T09:56:38;95639.69;;;-7.75;50.16
74921;BME280;63483;47.384;8.860;2022-12-18T09:59:05;95642.31;;;-7.78;48.97
74921;BME280;63483;47.384;8.860;2022-12-18T10:01:31;95645.72;;;-7.79;49.72
74921;BME280;63483;47.384;8.860;2022-12-18T10:03:57;95656.19;;;-7.59;50.88
74921;BME280;63483;47.384;8.860;2022-12-18T10:09:28;95651.59;;;-7.18;61.17
74921;BME280;63483;47.384;8.860;2022-12-18T10:12:08;95643.56;;;-6.78;53.94
74921;BME280;63483;47.384;8.860;2022-12-18T10:20:17;95657.41;;;-7.42;52.53
74921;BME280;63483;47.384;8.860;2022-12-18T10:28:00;95647.44;;;-8.11;52.92
74921;BME280;63483;47.384;8.860;2022-12-18T10:30:32;95656.13;;;-8.18;52.48
74921;BME280;63483;47.384;8.860;2022-12-18T10:33:02;95646.75;;;-8.16;52.97
74921;BME280;63483;47.384;8.860;2022-12-18T10:35:28;95651.50;;;-8.04;53.31
74921;BME280;63483;47.384;8.860;2022-12-18T10:41:00;95660.59;;;-7.65;55.29
74921;BME280;63483;47.384;8.860;2022-12-18T10:43:30;95661.56;;;-7.11;53.12
74921;BME280;63483;47.384;8.860;2022-12-18T10:48:24;95665.63;;;-6.77;54.09
74921;BME280;63483;47.384;8.860;2022-12-18T10:50:51;95673.63;;;-6.36;57.26
74921;BME280;63483;47.384;8.860;2022-12-18T10:53:21;95672.88;;;-6.65;50.70
74921;BME280;63483;47.384;8.860;2022-12-18T10:55:47;95671.19;;;-6.39;53.04
74921;BME280;63483;47.384;8.860;2022-12-18T11:03:37;95668.47;;;-5.84;49.72
74921;BME280;63483;47.384;8.860;2022-12-18T11:08:30;95662.41;;;-5.82;46.89
74921;BME280;63483;47.384;8.860;2022-12-18T11:10:55;95663.31;;;-5.59;50.81
74921;BME280;63483;47.384;8.860;2022-12-18T11:13:22;95662.72;;;-5.91;62.74
74921;BME280;63483;47.384;8.860;2022-12-18T11:15:49;95662.66;;;-5.18;59.08
74921;BME280;63483;47.384;8.860;2022-12-18T11:18:33;95672.00;;;-4.73;56.85
74921;BME280;63483;47.384;8.860;2022-12-18T11:21:11;95657.19;;;-4.44;54.87
74921;BME280;63483;47.384;8.860;2022-12-18T11:23:54;95646.84;;;-4.21;54.82
74921;BME280;63483;47.384;8.860;2022-12-18T11:26:20;95654.38;;;-3.97;54.27
74921;BME280;63483;47.384;8.860;2022-12-18T11:28:49;95659.78;;;-3.84;54.54
74921;BME280;63483;47.384;8.860;2022-12-18T11:31:25;95654.00;;;-3.69;53.58
74921;BME280;63483;47.384;8.860;2022-12-18T11:36:25;95634.41;;;-3.32;52.84
74921;BME280;63483;47.384;8.860;2022-12-18T11:38:55;95627.88;;;-3.20;52.63
74921;BME280;63483;47.384;8.860;2022-12-18T11:41:45;95620.47;;;-3.07;51.90
74921;BME280;63483;47.384;8.860;2022-12-18T11:45:01;95615.69;;;-2.96;51.29
74921;BME280;63483;47.384;8.860;2022-12-18T11:47:39;95603.22;;;-2.86;50.74
74921;BME280;63483;47.384;8.860;2022-12-18T11:50:17;95601.16;;;-2.78;50.46
74921;BME280;63483;47.384;8.860;2022-12-18T11:52:44;95598.50;;;-2.76;50.49
74921;BME280;63483;47.384;8.860;2022-12-18T11:55:31;95596.53;;;-2.71;50.51
74921;BME280;63483;47.384;8.860;2022-12-18T11:58:24;95596.03;;;-2.60;50.64
74921;BME280;63483;47.384;8.860;2022-12-18T12:16:48;95602.97;;;-1.94;49.15
74921;BME280;63483;47.384;8.860;2022-12-18T12:22:07;95618.41;;;-2.11;48.06
74921;BME280;63483;47.384;8.860;2022-12-18T12:30:21;95610.88;;;-2.49;49.10
74921;BME280;63483;47.384;8.860;2022-12-18T12:35:49;95595.03;;;-2.40;49.37
74921;BME280;63483;47.384;8.860;2022-12-18T12:38:28;95591.41;;;-2.36;48.82
74921;BME280;63483;47.384;8.860;2022-12-18T12:41:02;95591.56;;;-2.39;49.57
74921;BME280;63483;47.384;8.860;2022-12-18T12:43:38;95579.31;;;-2.34;49.33
74921;BME280;63483;47.384;8.860;2022-12-18T12:46:10;95591.94;;;-3.18;48.05
74921;BME280;63483;47.384;8.860;2022-12-18T12:48:46;95576.06;;;-3.82;48.13
74921;BME280;63483;47.384;8.860;2022-12-18T12:51:28;95582.59;;;-4.54;46.48
74921;BME280;63483;47.384;8.860;2022-12-18T12:53:56;95577.69;;;-5.01;47.99
74921;BME280;63483;47.384;8.860;2022-12-18T12:56:25;95572.72;;;-5.49;48.07
74921;BME280;63483;47.384;8.860;2022-12-18T12:59:04;95572.94;;;-5.77;48.72
74921;BME280;63483;47.384;8.860;2022-12-18T13:02:10;95564.78;;;-6.10;48.18
74921;BME280;63483;47.384;8.860;2022-12-18T13:18:04;95580.53;;;-6.23;52.97
74921;BME280;63483;47.384;8.860;2022-12-18T13:20:34;95569.38;;;-6.20;50.61
74921;BME280;63483;47.384;8.860;2022-12-18T13:23:01;95574.13;;;-5.86;51.56
74921;BME280;63483;47.384;8.860;2022-12-18T13:25:36;95575.72;;;-5.61;51.27
74921;BME280;63483;47.384;8.860;2022-12-18T13:28:16;95574.97;;;-5.19;52.19
74921;BME280;63483;47.384;8.860;2022-12-18T13:30:50;95581.94;;;-4.80;54.32
74921;BME280;63483;47.384;8.860;2022-12-18T13:46:25;95592.66;;;-4.92;55.18
74921;BME280;63483;47.384;8.860;2022-12-18T13:49:05;95588.44;;;-5.37;50.95
74921;BME280;63483;47.384;8.860;2022-12-18T13:51:43;95581.41;;;-5.77;50.21
74921;BME280;63483;47.384;8.860;2022-12-18T13:56:47;95581.06;;;-6.38;50.81
74921;BME280;63483;47.384;8.860;2022-12-18T13:59:19;95597.22;;;-6.63;51.11
74921;BME280;63483;47.384;8.860;2022-12-18T14:01:51;95585.72;;;-6.76;52.88
74921;BME280;63483;47.384;8.860;2022-12-18T14:06:53;95592.78;;;-7.10;52.87
74921;BME280;63483;47.384;8.860;2022-12-18T14:09:29;95592.13;;;-7.16;53.96
74921;BME280;63483;47.384;8.860;2022-12-18T14:11:55;95588.91;;;-7.22;53.08
74921;BME280;63483;47.384;8.860;2022-12-18T14:14:44;95590.69;;;-7.25;54.20
74921;BME280;63483;47.384;8.860;2022-12-18T14:17:11;95605.84;;;-7.21;54.01
74921;BME280;63483;47.384;8.860;2022-12-18T14:19:43;95604.22;;;-6.96;53.14
74921;BME280;63483;47.384;8.860;2022-12-18T14:22:18;95590.47;;;-6.91;53.81
74921;BME280;63483;47.384;8.860;2022-12-18T14:24:45;95591.41;;;-6.93;53.26
74921;BME280;63483;47.384;8.860;2022-12-18T14:27:23;95595.31;;;-6.83;52.85
74921;BME280;63483;47.384;8.860;2022-12-18T14:29:49;95597.28;;;-6.66;51.89
74921;BME280;63483;47.384;8.860;2022-12-18T14:32:16;95591.91;;;-6.57;52.35
74921;BME280;63483;47.384;8.860;2022-12-18T14:34:53;95602.00;;;-6.54;51.55
74921;BME280;63483;47.384;8.860;2022-12-18T14:37:26;95605.09;;;-6.45;50.27
74921;BME280;63483;47.384;8.860;2022-12-18T14:39:57;95599.69;;;-6.36;50.19
74921;BME280;63483;47.384;8.860;2022-12-18T14:42:23;95589.53;;;-6.13;51.60
74921;BME280;63483;47.384;8.860;2022-12-18T14:47:56;95600.28;;;-6.04;66.10
74921;BME280;63483;47.384;8.860;2022-12-18T14:50:22;95600.38;;;-6.31;56.80
74921;BME280;63483;47.384;8.860;2022-12-18T14:52:47;95604.16;;;-6.68;54.06
74921;BME280;63483;47.384;8.860;2022-12-18T14:55:17;95593.13;;;-6.94;54.96
74921;BME280;63483;47.384;8.860;2022-12-18T14:57:43;95600.66;;;-7.18;54.61
74921;BME280;63483;47.384;8.860;2022-12-18T15:00:20;95602.88;;;-7.35;53.43